createdAt,value
2023-02-18T00:04:54.447Z,5.37
2023-02-18T00:09:57.292Z,5.10
2023-02-18T00:15:00.237Z,5.00
2023-02-18T00:20:03.274Z,4.80
2023-02-18T00:25:06.349Z,4.77
2023-02-18T05:34:23.928Z,1.30
2023-02-18T05:39:26.825Z,0.93
2023-02-18T05:44:33.297Z,3.63
2023-02-18T05:49:36.728Z,1.10
2023-02-18T05:54:39.955Z,7.43
2023-02-18T05:59:43.369Z,3.00
2023-02-18T06:04:46.244Z,2.03
2023-02-18T06:09:49.138Z,1.90
2023-02-18T06:14:52.075Z,5.00
2023-02-18T06:19:54.906Z,2.03
2023-02-18T06:24:57.710Z,5.83
2023-02-18T06:30:00.579Z,1.20
2023-02-18T06:35:03.551Z,1.13
2023-02-18T06:40:07.514Z,1.10
2023-02-18T06:45:10.452Z,2.10
2023-02-18T06:50:13.337Z,2.47
2023-02-18T06:55:16.246Z,1.83
2023-02-18T07:00:19.464Z,2.67
2023-02-18T07:05:22.433Z,1.43
2023-02-18T07:10:25.391Z,1.43
2023-02-18T07:15:28.274Z,1.00
2023-02-18T07:20:31.098Z,2.07
2023-02-18T07:25:34.004Z,1.63
2023-02-18T07:30:36.997Z,1.30
2023-02-18T07:35:39.896Z,1.63
2023-02-18T07:40:42.762Z,2.00
2023-02-18T07:45:45.741Z,1.93
2023-02-18T07:50:48.805Z,3.60
2023-02-18T07:55:51.760Z,2.60
2023-02-18T08:00:55.113Z,1.33
2023-02-18T08:05:58.549Z,3.73
2023-02-18T08:11:18.392Z,4.20
2023-02-18T08:16:22.533Z,1.77
2023-02-18T08:21:26.635Z,1.53
2023-02-18T08:26:29.742Z,3.27
2023-02-18T08:31:32.960Z,1.80
2023-02-18T08:36:37.114Z,2.40
2023-02-18T08:41:39.973Z,3.73
2023-02-18T08:46:42.991Z,4.83
2023-02-18T08:51:46.214Z,1.70
2023-02-18T08:56:49.083Z,2.10
2023-02-18T09:01:52.130Z,1.90
2023-02-18T09:06:55.020Z,2.83
2023-02-18T09:11:58.335Z,3.17
2023-02-18T09:17:01.329Z,4.73
2023-02-18T09:22:04.200Z,2.07
2023-02-18T09:27:07.159Z,5.53
2023-02-18T09:32:13.217Z,8.00
2023-02-18T09:37:18.783Z,4.17
2023-02-18T09:42:28.151Z,4.03
2023-02-18T09:47:40.665Z,4.80
2023-02-18T09:52:43.594Z,3.13
2023-02-18T09:57:51.934Z,2.43
2023-02-18T10:03:14.855Z,2.10
2023-02-18T10:08:41.543Z,1.30
2023-02-18T10:13:45.372Z,2.20
2023-02-18T10:18:50.879Z,2.40
2023-02-18T10:24:07.388Z,3.83
2023-02-18T10:29:21.418Z,1.30
2023-02-18T10:34:43.316Z,2.90
2023-02-18T10:39:57.865Z,2.77
2023-02-18T10:45:19.254Z,2.93
2023-02-18T10:50:27.701Z,2.17
2023-02-18T10:55:42.160Z,5.33
2023-02-18T11:00:45.504Z,3.10
2023-02-18T11:05:53.152Z,2.23
2023-02-18T11:10:56.865Z,1.97
2023-02-18T11:16:02.601Z,1.33
2023-02-18T11:21:21.575Z,2.87
2023-02-18T11:26:33.802Z,5.57
2023-02-18T11:31:45.528Z,6.83
2023-02-18T11:36:49.399Z,2.87
2023-02-18T11:42:04.131Z,4.20
2023-02-18T11:47:12.834Z,3.70
2023-02-18T11:52:22.487Z,3.67
2023-02-18T11:57:26.537Z,2.87
2023-02-18T12:02:34.904Z,4.20
2023-02-18T12:07:44.116Z,1.83
2023-02-18T12:13:08.484Z,2.60
2023-02-18T12:18:23.432Z,2.40
2023-02-18T12:23:37.031Z,3.70
2023-02-18T12:29:02.608Z,5.93
2023-02-18T12:34:23.262Z,2.93
2023-02-18T12:40:02.264Z,4.17
2023-02-18T12:45:29.653Z,3.03
2023-02-18T12:51:05.991Z,7.87
2023-02-18T12:56:14.026Z,4.63
2023-02-18T13:01:16.816Z,8.07
2023-02-18T13:06:47.444Z,8.23
2023-02-18T13:11:59.143Z,4.17
2023-02-18T13:17:03.457Z,5.77
2023-02-18T13:22:07.543Z,5.27
2023-02-18T13:27:25.381Z,7.83
2023-02-18T13:32:51.030Z,6.90
2023-02-18T13:38:35.754Z,5.07
2023-02-18T13:43:39.798Z,9.47
2023-02-18T13:49:05.342Z,10.97
2023-02-18T13:54:17.254Z,6.53
2023-02-18T13:59:24.996Z,5.57
2023-02-18T14:04:39.652Z,5.93
2023-02-18T14:09:43.606Z,6.60
2023-02-18T14:14:46.620Z,8.93
2023-02-18T14:20:16.632Z,8.60
2023-02-18T14:25:26.074Z,11.57
2023-02-18T14:30:40.458Z,8.73
2023-02-18T14:35:53.808Z,12.07
2023-02-18T14:41:11.828Z,10.10
2023-02-18T14:46:42.244Z,12.50
2023-02-18T14:51:48.095Z,12.73
2023-02-18T14:56:59.223Z,8.93
2023-02-18T15:02:02.104Z,15.90
2023-02-18T15:07:08.681Z,15.17
2023-02-18T15:12:19.415Z,15.73
2023-02-18T15:17:29.693Z,16.47
2023-02-18T15:22:36.419Z,16.47
2023-02-18T15:27:44.473Z,14.60
2023-02-18T15:32:58.199Z,14.20
2023-02-18T15:38:02.127Z,19.87
2023-02-18T15:43:05.927Z,22.07
2023-02-18T15:48:35.978Z,17.03
2023-02-18T15:53:40.786Z,15.53
2023-02-18T15:58:43.846Z,15.60
2023-02-18T16:03:47.590Z,11.03
2023-02-18T16:09:36.783Z,15.60
2023-02-18T16:14:51.661Z,9.57
2023-02-18T16:20:07.360Z,16.90
2023-02-18T16:25:22.360Z,12.57
2023-02-18T16:30:27.821Z,16.20
2023-02-18T16:35:47.446Z,10.73
2023-02-18T16:40:53.759Z,11.43
2023-02-18T16:46:05.546Z,10.90
2023-02-18T16:51:25.797Z,9.07
2023-02-18T16:56:33.622Z,9.67
2023-02-18T17:01:44.993Z,15.10
2023-02-18T17:06:49.741Z,15.07
2023-02-18T17:11:54.952Z,11.30
2023-02-18T17:16:58.143Z,15.70
2023-02-18T17:22:01.070Z,10.20
2023-02-18T17:27:03.991Z,5.00
2023-02-18T17:32:08.559Z,8.40
2023-02-18T17:37:13.900Z,6.97
2023-02-18T17:42:17.146Z,7.23
2023-02-18T17:47:20.328Z,6.93
2023-02-18T17:52:30.665Z,6.43
2023-02-18T17:57:33.747Z,8.37
2023-02-18T18:02:36.994Z,7.73
2023-02-18T18:07:39.995Z,5.50
2023-02-18T18:12:42.911Z,7.77
2023-02-18T18:17:45.910Z,10.67
2023-02-18T18:22:49.048Z,9.20
2023-02-18T18:27:52.954Z,4.67
2023-02-18T18:32:56.248Z,4.40
2023-02-18T18:37:59.677Z,5.73
2023-02-18T18:43:03.644Z,5.33
2023-02-18T18:48:07.125Z,6.57
2023-02-18T18:53:31.275Z,5.70
2023-02-18T18:58:35.004Z,3.67
2023-02-18T19:03:38.636Z,4.13
2023-02-18T19:08:43.803Z,4.07
2023-02-18T19:13:46.773Z,4.33
2023-02-18T19:18:50.182Z,4.53
2023-02-18T19:23:53.253Z,3.40
2023-02-18T19:28:56.101Z,3.97
2023-02-18T19:33:58.946Z,2.80
2023-02-18T19:39:01.897Z,3.50
2023-02-18T19:44:05.364Z,3.17
2023-02-18T19:49:08.307Z,2.93
2023-02-18T19:54:11.206Z,3.00
2023-02-18T19:59:14.066Z,2.73
2023-02-18T20:04:17.280Z,7.27
2023-02-18T20:09:20.425Z,3.30
2023-02-18T20:14:27.073Z,5.03
2023-02-18T20:19:32.000Z,2.50
2023-02-18T20:24:35.069Z,2.60
2023-02-18T20:29:38.178Z,5.47
2023-02-18T20:34:41.049Z,4.30
2023-02-18T20:39:43.938Z,2.50
2023-02-18T20:44:47.435Z,4.40
2023-02-18T20:49:50.362Z,2.07
2023-02-18T20:54:53.183Z,3.57
2023-02-18T20:59:58.142Z,2.17
2023-02-18T21:05:01.111Z,1.60
2023-02-18T21:10:04.448Z,1.60
2023-02-18T21:15:07.612Z,2.00
2023-02-18T21:20:10.632Z,2.83
2023-02-18T21:25:13.562Z,1.80
2023-02-18T21:30:16.424Z,1.90
2023-02-18T21:35:19.289Z,2.60
2023-02-18T21:40:22.135Z,4.13
2023-02-18T21:45:26.875Z,2.03
2023-02-18T21:50:29.748Z,2.93
2023-02-18T21:55:32.588Z,4.20
2023-02-18T22:00:36.736Z,1.70
2023-02-18T22:05:43.201Z,3.13
2023-02-18T22:10:46.175Z,3.47
2023-02-18T22:15:55.808Z,3.67
2023-02-18T22:20:59.017Z,2.23
2023-02-18T22:26:09.645Z,2.23
2023-02-18T22:31:13.801Z,4.40
2023-02-18T22:36:16.937Z,5.90
2023-02-18T22:41:22.782Z,2.60
2023-02-18T22:46:25.664Z,4.73
2023-02-18T22:51:32.287Z,2.83
2023-02-18T22:56:35.186Z,3.30
2023-02-18T23:01:40.647Z,3.57
2023-02-18T23:07:45.057Z,2.83
2023-02-18T23:12:47.972Z,2.37
2023-02-18T23:17:50.842Z,2.47
2023-02-18T23:22:53.707Z,2.50
2023-02-18T23:27:56.593Z,3.20
2023-02-18T23:32:59.495Z,2.33
2023-02-18T23:38:05.129Z,5.23
2023-02-18T23:43:08.016Z,4.13
2023-02-18T23:48:10.911Z,2.83
2023-02-18T23:53:13.792Z,2.23
2023-02-18T23:58:16.652Z,1.40
